Terminal Aerodrome Forecast
Issued by NWS

Home | Current Version | Previous Version | Text Only | Print | Product List | Glossary Off
Versions: 1 2 3 4 5 6 7 8 9 10 11 12

000
FTUS45 KGGW 111127
TAFGDV
TAF
KGDV 111127Z 1112/1212 31019G29KT P6SM BKN030
     FM111500 31014G23KT P6SM OVC025
     FM112100 30010KT P6SM SCT035
     FM120000 27006KT P6SM FEW120=

USA.gov is the U.S. government's official web portal to all federal, state and local government web resources and services.